createdAt,value
2023-05-02T00:00:40.545Z,95991.97
2023-05-02T00:03:08.205Z,95986.19
2023-05-02T00:05:35.257Z,95982.44
2023-05-02T00:08:01.981Z,95992.72
2023-05-02T00:10:28.493Z,95988.53
2023-05-02T00:12:54.971Z,95979.81
2023-05-02T00:15:21.525Z,95983.00
2023-05-02T00:17:48.174Z,95980.91
2023-05-02T00:20:14.735Z,95985.69
2023-05-02T00:22:41.296Z,95983.81
2023-05-02T00:25:08.316Z,95985.16
2023-05-02T00:27:34.874Z,95979.13
2023-05-02T00:30:01.852Z,95987.31
2023-05-02T00:32:28.745Z,95982.31
2023-05-02T00:34:55.848Z,95986.56
2023-05-02T00:37:26.427Z,95984.94
2023-05-02T00:39:52.915Z,95978.41
2023-05-02T00:42:19.496Z,95974.22
2023-05-02T00:44:46.914Z,95981.88
2023-05-02T00:47:15.049Z,95974.53
2023-05-02T00:49:42.150Z,95978.22
2023-05-02T00:52:09.231Z,95980.56
2023-05-02T00:54:39.279Z,95981.66
2023-05-02T00:57:06.060Z,95984.03
2023-05-02T00:59:36.048Z,95966.19
2023-05-02T01:02:22.464Z,95984.31
2023-05-02T01:04:59.964Z,95983.78
2023-05-02T01:07:51.606Z,95987.50
2023-05-02T01:10:43.222Z,95991.16
2023-05-02T01:13:17.310Z,95985.41
2023-05-02T01:15:45.565Z,95994.09
2023-05-02T01:18:15.640Z,95986.47
2023-05-02T01:20:44.796Z,95990.41
2023-05-02T01:23:23.462Z,95983.06
2023-05-02T01:26:00.134Z,95989.91
2023-05-02T01:28:43.427Z,95990.47
2023-05-02T01:31:11.935Z,95992.84
2023-05-02T01:33:40.392Z,95994.69
2023-05-02T01:36:08.402Z,95994.16
2023-05-02T01:38:36.108Z,95991.53
2023-05-02T01:41:05.369Z,95990.47
2023-05-02T01:43:35.018Z,95997.88
2023-05-02T01:46:04.293Z,95993.38
2023-05-02T01:48:31.451Z,95993.66
2023-05-02T01:50:58.767Z,95998.44
2023-05-02T01:53:28.700Z,95998.16
2023-05-02T01:55:57.201Z,95998.16
2023-05-02T01:58:28.804Z,95997.63
2023-05-02T02:00:59.788Z,95995.00
2023-05-02T02:03:28.388Z,96000.28
2023-05-02T02:05:56.577Z,95988.72
2023-05-02T02:08:24.078Z,96007.13
2023-05-02T02:11:00.574Z,96009.75
2023-05-02T02:13:33.996Z,96007.09
2023-05-02T02:16:04.653Z,96009.22
2023-05-02T02:18:36.946Z,96012.63
2023-05-02T02:21:07.687Z,96020.53
2023-05-02T02:23:36.714Z,96021.06
2023-05-02T02:26:05.181Z,96017.91
2023-05-02T02:28:31.952Z,96018.69
2023-05-02T02:30:58.502Z,96025.53
2023-05-02T02:33:30.582Z,96019.75
2023-05-02T02:36:08.505Z,96017.13
2023-05-02T02:38:44.484Z,96030.53
2023-05-02T02:41:31.865Z,96027.91
2023-05-02T02:44:14.183Z,96025.28
2023-05-02T02:47:19.212Z,96035.25
2023-05-02T02:50:09.706Z,96030.78
2023-05-02T02:52:52.214Z,96034.47
2023-05-02T02:55:29.801Z,96031.06
2023-05-02T02:58:07.504Z,96035.53
2023-05-02T03:00:35.431Z,96033.44
2023-05-02T03:03:02.120Z,96036.84
2023-05-02T03:05:29.648Z,96038.69
2023-05-02T03:07:58.895Z,96046.03
2023-05-02T03:10:25.470Z,96039.22
2023-05-02T03:12:55.629Z,96046.56
2023-05-02T03:15:41.788Z,96048.41
2023-05-02T03:18:10.072Z,96053.16
2023-05-02T03:20:36.723Z,96049.22
2023-05-02T03:23:03.919Z,96061.28
2023-05-02T03:25:30.444Z,96054.72
2023-05-02T03:27:57.951Z,96050.78
2023-05-02T03:30:24.645Z,96054.47
2023-05-02T03:32:51.478Z,96056.03
2023-05-02T03:35:18.303Z,96057.59
2023-05-02T03:37:46.442Z,96058.13
2023-05-02T03:40:13.353Z,96062.06
2023-05-02T03:42:41.260Z,96054.72
2023-05-02T03:45:18.438Z,96061.53
2023-05-02T03:47:46.089Z,96071.00
2023-05-02T03:50:12.898Z,96075.19
2023-05-02T03:52:39.378Z,96070.72
2023-05-02T03:55:07.836Z,96072.03
2023-05-02T03:57:34.593Z,96077.00
2023-05-02T04:00:01.580Z,96074.38
2023-05-02T04:02:38.354Z,96082.50
2023-05-02T04:05:08.694Z,96080.41
2023-05-02T04:07:36.696Z,96084.88
2023-05-02T04:10:06.955Z,96092.22
2023-05-02T04:12:39.180Z,96088.00
2023-05-02T04:15:06.591Z,96094.31
2023-05-02T04:17:33.918Z,96097.47
2023-05-02T04:20:03.160Z,96090.66
2023-05-02T04:22:33.148Z,96102.00
2023-05-02T04:25:03.620Z,96100.66
2023-05-02T04:27:30.986Z,96098.59
2023-05-02T04:29:58.856Z,96093.34
2023-05-02T04:32:27.095Z,96105.69
2023-05-02T04:34:55.911Z,96112.25
2023-05-02T04:37:23.416Z,96106.47
2023-05-02T04:39:50.067Z,96114.63
2023-05-02T04:42:25.605Z,96117.00
2023-05-02T04:45:12.638Z,96118.06
2023-05-02T04:47:40.108Z,96127.56
2023-05-02T04:50:07.586Z,96131.50
2023-05-02T04:52:35.773Z,96128.31
2023-05-02T04:55:02.340Z,96135.97
2023-05-02T04:57:28.996Z,96142.56
2023-05-02T04:59:58.999Z,96144.41
2023-05-02T05:02:27.015Z,96151.25
2023-05-02T05:04:54.986Z,96150.44
2023-05-02T05:07:21.548Z,96155.97
2023-05-02T05:09:52.020Z,96154.91
2023-05-02T05:12:21.174Z,96151.50
2023-05-02T05:14:48.254Z,96159.16
2023-05-02T05:17:14.931Z,96165.22
2023-05-02T05:19:42.413Z,96162.34
2023-05-02T05:22:09.875Z,96163.38
2023-05-02T05:24:38.168Z,96160.22
2023-05-02T05:27:06.309Z,96168.34
2023-05-02T05:29:33.325Z,96161.81
2023-05-02T05:32:00.241Z,96170.22
2023-05-02T05:34:27.835Z,96175.75
2023-05-02T05:36:57.874Z,96172.56
2023-05-02T05:39:25.283Z,96181.78
2023-05-02T05:41:54.602Z,96182.59
2023-05-02T05:44:22.274Z,96179.41
2023-05-02T05:46:49.333Z,96191.00
2023-05-02T05:49:16.891Z,96189.66
2023-05-02T05:51:44.178Z,96201.00
2023-05-02T05:54:11.443Z,96195.72
2023-05-02T05:56:38.795Z,96205.44
2023-05-02T05:59:17.429Z,96207.00
2023-05-02T06:01:43.933Z,96205.19
2023-05-02T06:04:11.815Z,96203.56
2023-05-02T06:06:41.760Z,96203.84
2023-05-02T06:09:08.325Z,96203.56
2023-05-02T06:11:37.841Z,96204.63
2023-05-02T06:14:04.488Z,96218.06
2023-05-02T06:16:31.369Z,96213.03
2023-05-02T06:18:57.980Z,96216.94
2023-05-02T06:21:24.445Z,96227.75
2023-05-02T06:23:50.914Z,96221.16
2023-05-02T06:26:17.407Z,96231.13
2023-05-02T06:28:44.356Z,96238.00
2023-05-02T06:31:11.027Z,96235.88
2023-05-02T06:33:37.553Z,96234.03
2023-05-02T06:36:04.253Z,96236.66
2023-05-02T06:38:30.943Z,96233.72
2023-05-02T06:40:57.434Z,96242.13
2023-05-02T06:43:24.021Z,96250.81
2023-05-02T06:45:54.468Z,96246.28
2023-05-02T06:48:21.649Z,96244.94
2023-05-02T06:50:49.015Z,96256.97
2023-05-02T06:53:15.786Z,96255.41
2023-05-02T06:55:42.409Z,96255.09
2023-05-02T06:58:09.026Z,96250.78
2023-05-02T07:00:35.597Z,96249.25
2023-05-02T07:03:02.151Z,96256.38
2023-05-02T07:05:29.382Z,96259.97
2023-05-02T07:07:55.852Z,96262.84
2023-05-02T07:10:22.807Z,96265.75
2023-05-02T07:12:49.252Z,96272.81
2023-05-02T07:15:16.596Z,96269.97
2023-05-02T07:17:43.395Z,96271.28
2023-05-02T07:20:10.806Z,96265.75
2023-05-02T07:22:37.287Z,96266.81
2023-05-02T07:25:04.112Z,96273.94
2023-05-02T07:27:30.784Z,96247.94
2023-05-02T07:29:57.282Z,96260.22
2023-05-02T07:32:26.112Z,96261.28
2023-05-02T07:34:56.925Z,96248.69
2023-05-02T07:37:23.729Z,96268.47
2023-05-02T07:39:50.263Z,96256.38
2023-05-02T07:42:16.790Z,96235.56
2023-05-02T07:44:43.404Z,96264.53
2023-05-02T07:47:09.965Z,96271.59
2023-05-02T07:49:36.874Z,96284.88
2023-05-02T07:52:04.404Z,96270.53
2023-05-02T07:54:30.982Z,96278.63
2023-05-02T07:57:01.975Z,96275.41
2023-05-02T07:59:28.632Z,96289.78
2023-05-02T08:01:55.097Z,96268.44
2023-05-02T08:04:21.857Z,96287.84
2023-05-02T08:06:48.373Z,96282.59
2023-05-02T08:09:14.854Z,96271.06
2023-05-02T08:11:41.276Z,96284.06
2023-05-02T08:14:08.016Z,96292.47
2023-05-02T08:16:34.961Z,96258.13
2023-05-02T08:19:01.554Z,96292.47
2023-05-02T08:21:28.379Z,96291.63
2023-05-02T08:23:58.938Z,96288.69
2023-05-02T08:26:26.233Z,96291.31
2023-05-02T08:28:53.061Z,96301.22
2023-05-02T08:31:19.736Z,96274.25
2023-05-02T08:33:46.936Z,96291.75
2023-05-02T08:36:18.380Z,96299.25
2023-05-02T08:38:46.302Z,96286.88
2023-05-02T08:41:19.751Z,96313.00
2023-05-02T08:43:47.224Z,96298.53
2023-05-02T08:46:15.743Z,96300.94
2023-05-02T08:48:45.026Z,96305.94
2023-05-02T08:51:14.007Z,96301.72
2023-05-02T08:53:41.541Z,96303.59
2023-05-02T08:56:09.710Z,96286.66
2023-05-02T08:58:40.260Z,96300.66
2023-05-02T09:01:15.127Z,96301.19
2023-05-02T09:03:47.209Z,96312.78
2023-05-02T09:06:16.991Z,96308.53
2023-05-02T09:08:45.937Z,96273.28
2023-05-02T09:11:13.426Z,96320.25
2023-05-02T09:13:42.171Z,96326.09
2023-05-02T09:16:14.396Z,96323.25
2023-05-02T09:18:42.264Z,96327.63
2023-05-02T09:21:12.806Z,96337.66
2023-05-02T09:23:45.984Z,96337.78
2023-05-02T09:26:13.099Z,96334.50
2023-05-02T09:28:50.631Z,96336.34
2023-05-02T09:31:43.440Z,96318.97
2023-05-02T09:34:13.730Z,96345.03
2023-05-02T09:36:46.140Z,96329.63
2023-05-02T09:39:15.152Z,96309.38
2023-05-02T09:41:47.870Z,96334.44
2023-05-02T09:44:17.068Z,96335.47
2023-05-02T09:46:45.949Z,96333.00
2023-05-02T09:49:12.653Z,96345.53
2023-05-02T09:51:39.137Z,96333.94
2023-05-02T09:54:05.693Z,96344.75
2023-05-02T09:56:32.432Z,96345.59
2023-05-02T09:59:15.990Z,96351.56
2023-05-02T10:01:42.865Z,96330.19
2023-05-02T10:04:16.245Z,96323.41
2023-05-02T10:06:44.255Z,96330.88
2023-05-02T10:09:14.986Z,96343.81
2023-05-02T10:11:44.917Z,96339.22
2023-05-02T10:14:12.566Z,96342.00
2023-05-02T10:16:48.352Z,96327.69
2023-05-02T10:19:22.842Z,96306.00
2023-05-02T10:21:50.418Z,96311.16
2023-05-02T10:24:17.014Z,96347.69
2023-05-02T10:26:44.091Z,96338.25
2023-05-02T10:29:11.540Z,96344.53
2023-05-02T10:31:41.824Z,96350.78
2023-05-02T10:34:11.726Z,96338.84
2023-05-02T10:36:38.183Z,96352.66
2023-05-02T10:39:05.284Z,96336.06
2023-05-02T10:41:34.242Z,96352.91
2023-05-02T10:44:02.232Z,96363.00
2023-05-02T10:46:36.700Z,96347.06
2023-05-02T10:49:08.312Z,96354.63
2023-05-02T10:51:36.775Z,96349.03
2023-05-02T10:54:22.513Z,96353.25
2023-05-02T10:57:03.429Z,96356.75
2023-05-02T10:59:34.051Z,96349.59
2023-05-02T11:02:01.554Z,96349.13
2023-05-02T11:05:00.645Z,96347.00
2023-05-02T11:07:28.224Z,96354.00
2023-05-02T11:10:17.315Z,96350.34
2023-05-02T11:12:50.327Z,96343.50
2023-05-02T11:15:25.883Z,96347.16
2023-05-02T11:18:13.614Z,96342.91
2023-05-02T11:20:44.254Z,96340.13
2023-05-02T11:23:13.817Z,96346.44
2023-05-02T11:25:43.428Z,96326.91
2023-05-02T11:28:38.196Z,96344.72
2023-05-02T11:31:05.866Z,96332.34
2023-05-02T11:33:32.534Z,96343.63
2023-05-02T11:35:59.388Z,96327.28
2023-05-02T11:38:35.055Z,96338.63
2023-05-02T11:41:02.911Z,96331.06
2023-05-02T11:43:31.981Z,96352.63
2023-05-02T11:46:00.537Z,96357.59
2023-05-02T11:48:27.798Z,96341.97
2023-05-02T11:50:56.696Z,96347.56
2023-05-02T11:53:29.312Z,96356.66
2023-05-02T11:55:59.092Z,96360.13
2023-05-02T11:58:29.921Z,96310.28
2023-05-02T12:00:57.200Z,96297.13
2023-05-02T12:03:30.950Z,96351.53
2023-05-02T12:06:10.534Z,96335.63
2023-05-02T12:08:37.188Z,96358.06
2023-05-02T12:11:03.735Z,96351.53
2023-05-02T12:13:30.576Z,96359.19
2023-05-02T12:15:57.437Z,96300.59
2023-05-02T12:18:25.501Z,96357.38
2023-05-02T12:20:53.005Z,96358.53
2023-05-02T12:23:21.103Z,96357.63
2023-05-02T12:25:49.129Z,96358.47
2023-05-02T12:28:19.516Z,96349.53
2023-05-02T12:30:48.656Z,96344.66
2023-05-02T12:33:16.744Z,96309.66
2023-05-02T12:35:43.543Z,96308.00
2023-05-02T12:38:10.401Z,96355.44
2023-05-02T12:40:37.264Z,96347.31
2023-05-02T12:43:07.338Z,96321.91
2023-05-02T12:45:34.629Z,96339.22
2023-05-02T12:48:02.370Z,96336.53
2023-05-02T12:50:37.109Z,96349.22
2023-05-02T12:53:03.880Z,96318.53
2023-05-02T12:55:32.245Z,96308.78
2023-05-02T12:58:07.076Z,96354.16
2023-05-02T13:00:36.759Z,96329.22
2023-05-02T13:03:04.077Z,96353.66
2023-05-02T13:05:30.982Z,96337.97
2023-05-02T13:07:58.443Z,96330.00
2023-05-02T13:10:26.172Z,96350.94
2023-05-02T13:12:53.052Z,96340.59
2023-05-02T13:15:19.706Z,96314.59
2023-05-02T13:17:47.657Z,96318.03
2023-05-02T13:20:14.761Z,96357.44
2023-05-02T13:22:41.535Z,96355.00
2023-05-02T13:25:09.045Z,96365.97
2023-05-02T13:27:35.655Z,96363.72
2023-05-02T13:30:04.218Z,96358.53
2023-05-02T13:32:33.201Z,96373.00
2023-05-02T13:34:59.763Z,96371.41
2023-05-02T13:37:26.810Z,96368.00
2023-05-02T13:39:53.333Z,96366.91
2023-05-02T13:42:19.838Z,96368.50
2023-05-02T13:44:46.329Z,96371.50
2023-05-02T13:47:12.815Z,96375.88
2023-05-02T13:49:39.323Z,96381.78
2023-05-02T13:52:05.868Z,96375.94
2023-05-02T13:54:32.553Z,96374.47
2023-05-02T13:56:59.096Z,96376.19
2023-05-02T13:59:25.760Z,96391.09
2023-05-02T14:01:52.459Z,96393.19
2023-05-02T14:04:19.265Z,96398.56
2023-05-02T14:06:46.811Z,96408.41
2023-05-02T14:09:13.748Z,96405.25
2023-05-02T14:11:40.269Z,96387.72
2023-05-02T14:14:07.184Z,96393.09
2023-05-02T14:16:35.165Z,96392.09
2023-05-02T14:19:01.712Z,96404.44
2023-05-02T14:21:28.241Z,96393.97
2023-05-02T14:23:54.724Z,96386.41
2023-05-02T14:26:21.286Z,96388.50
2023-05-02T14:28:48.026Z,96390.84
2023-05-02T14:31:14.775Z,96390.53
2023-05-02T14:33:41.534Z,96396.91
2023-05-02T14:36:08.087Z,96398.97
2023-05-02T14:38:34.585Z,96399.47
2023-05-02T14:41:02.820Z,96396.34
2023-05-02T14:43:29.425Z,96392.91
2023-05-02T14:45:56.628Z,96398.63
2023-05-02T14:48:23.114Z,96404.69
2023-05-02T14:50:49.617Z,96397.59
2023-05-02T14:53:16.215Z,96397.47
2023-05-02T14:55:43.276Z,96394.44
2023-05-02T14:58:10.385Z,96393.91
2023-05-02T15:00:37.881Z,96392.41
2023-05-02T15:03:07.438Z,96394.91
2023-05-02T15:05:36.139Z,96389.53
2023-05-02T15:08:03.228Z,96393.69
2023-05-02T15:10:29.792Z,96394.81
2023-05-02T15:12:56.339Z,96394.59
2023-05-02T15:15:25.094Z,96400.28
2023-05-02T15:17:52.905Z,96391.44
2023-05-02T15:20:20.017Z,96384.53
2023-05-02T15:22:46.656Z,96385.44
2023-05-02T15:25:13.449Z,96387.03
2023-05-02T15:27:39.959Z,96381.47
2023-05-02T15:30:07.334Z,96378.16
2023-05-02T15:32:33.934Z,96384.78
2023-05-02T15:35:00.510Z,96383.88
2023-05-02T15:37:27.107Z,96384.00
2023-05-02T15:39:53.723Z,96377.34
2023-05-02T15:42:20.308Z,96392.69
2023-05-02T15:44:46.812Z,96388.06
2023-05-02T15:47:13.334Z,96395.03
2023-05-02T15:49:40.566Z,96397.75
2023-05-02T15:52:07.046Z,96403.16
2023-05-02T15:54:33.570Z,96398.72
2023-05-02T15:57:00.851Z,96412.44
2023-05-02T15:59:27.722Z,96408.56
2023-05-02T16:01:54.328Z,96416.50
2023-05-02T16:04:20.920Z,96412.63
2023-05-02T16:06:47.491Z,96431.31
2023-05-02T16:09:14.413Z,96431.41
2023-05-02T16:11:41.008Z,96435.84
2023-05-02T16:14:07.481Z,96438.84
2023-05-02T16:16:34.427Z,96449.25
2023-05-02T16:19:00.964Z,96443.06
2023-05-02T16:21:27.759Z,96456.53
2023-05-02T16:23:54.981Z,96463.75
2023-05-02T16:26:21.655Z,96480.41
2023-05-02T16:28:48.163Z,96488.34
2023-05-02T16:31:15.196Z,96486.25
2023-05-02T16:33:42.960Z,96498.66
2023-05-02T16:36:09.861Z,96511.41
2023-05-02T16:38:36.695Z,96500.03
2023-05-02T16:41:05.579Z,96497.72
2023-05-02T16:43:32.193Z,96507.53
2023-05-02T16:46:03.329Z,96510.50
2023-05-02T16:48:30.035Z,96519.50
2023-05-02T16:50:57.179Z,96524.31
2023-05-02T16:53:24.794Z,96528.28
2023-05-02T16:55:51.275Z,96529.13
2023-05-02T16:58:17.834Z,96531.75
2023-05-02T17:00:44.358Z,96532.53
2023-05-02T17:03:11.379Z,96536.78
2023-05-02T17:05:38.074Z,96534.41
2023-05-02T17:08:04.604Z,96530.19
2023-05-02T17:10:31.365Z,96529.69
2023-05-02T17:12:58.560Z,96524.91
2023-05-02T17:15:25.076Z,96509.09
2023-05-02T17:17:51.943Z,96515.94
2023-05-02T17:20:20.709Z,96510.13
2023-05-02T17:22:48.004Z,96506.97
2023-05-02T17:25:15.779Z,96498.53
2023-05-02T17:27:42.525Z,96497.47
2023-05-02T17:30:09.482Z,96491.66
2023-05-02T17:32:37.636Z,96485.06
2023-05-02T17:35:04.715Z,96487.97
2023-05-02T17:37:31.254Z,96490.34
2023-05-02T17:39:57.810Z,96488.78
2023-05-02T17:42:24.407Z,96495.91
2023-05-02T17:44:52.438Z,96501.97
2023-05-02T17:47:19.858Z,96498.81
2023-05-02T17:49:49.619Z,96508.56
2023-05-02T17:52:16.150Z,96520.16
2023-05-02T17:54:42.929Z,96522.53
2023-05-02T17:57:10.078Z,96520.69
2023-05-02T17:59:39.734Z,96517.53
2023-05-02T18:02:09.885Z,96520.97
2023-05-02T18:04:36.830Z,96510.13
2023-05-02T18:07:05.748Z,96520.44
2023-05-02T18:09:32.684Z,96529.94
2023-05-02T18:12:00.547Z,96535.97
2023-05-02T18:14:27.056Z,96533.59
2023-05-02T18:16:53.596Z,96526.47
2023-05-02T18:19:20.107Z,96529.41
2023-05-02T18:21:46.609Z,96526.22
2023-05-02T18:24:13.268Z,96537.03
2023-05-02T18:26:39.917Z,96543.91
2023-05-02T18:29:06.453Z,96538.34
2023-05-02T18:31:33.055Z,96539.13
2023-05-02T18:33:59.588Z,96545.47
2023-05-02T18:36:28.514Z,96546.50
2023-05-02T18:38:55.919Z,96549.69
2023-05-02T18:41:22.576Z,96554.94
2023-05-02T18:43:49.400Z,96560.19
2023-05-02T18:46:16.112Z,96561.78
2023-05-02T18:48:43.428Z,96561.50
2023-05-02T18:51:10.759Z,96570.22
2023-05-02T18:53:37.353Z,96570.69
2023-05-02T18:56:04.048Z,96578.53
2023-05-02T18:58:30.534Z,96579.38
2023-05-02T19:00:57.112Z,96581.94
2023-05-02T19:03:24.015Z,96581.44
2023-05-02T19:05:51.301Z,96587.75
2023-05-02T19:08:18.018Z,96579.03
2023-05-02T19:10:44.527Z,96583.50
2023-05-02T19:13:10.996Z,96576.91
2023-05-02T19:15:37.688Z,96580.59
2023-05-02T19:18:04.386Z,96582.41
2023-05-02T19:20:30.935Z,96583.69
2023-05-02T19:23:10.992Z,96581.31
2023-05-02T19:25:44.460Z,96587.38
2023-05-02T19:28:12.229Z,96587.38
2023-05-02T19:30:42.379Z,96587.38
2023-05-02T19:33:09.115Z,96586.56
2023-05-02T19:35:37.060Z,96588.38
2023-05-02T19:38:03.570Z,96595.13
2023-05-02T19:40:30.135Z,96599.06
2023-05-02T19:42:56.643Z,96606.19
2023-05-02T19:45:23.232Z,96610.88
2023-05-02T19:47:49.732Z,96613.19
2023-05-02T19:50:16.449Z,96608.16
2023-05-02T19:52:44.490Z,96607.09
2023-05-02T19:55:11.323Z,96610.22
2023-05-02T19:57:37.865Z,96609.38
2023-05-02T20:00:05.941Z,96605.66
2023-05-02T20:02:39.166Z,96608.53
2023-05-02T20:05:06.186Z,96606.97
2023-05-02T20:07:32.722Z,96619.81
2023-05-02T20:09:59.384Z,96618.47
2023-05-02T20:12:26.055Z,96618.97
2023-05-02T20:14:52.663Z,96631.59
2023-05-02T20:17:19.167Z,96624.66
2023-05-02T20:19:45.868Z,96627.28
2023-05-02T20:22:12.496Z,96624.03
2023-05-02T20:24:39.196Z,96620.84
2023-05-02T20:27:05.736Z,96626.09
2023-05-02T20:29:32.292Z,96634.97
2023-05-02T20:31:59.459Z,96634.97
2023-05-02T20:34:26.085Z,96629.97
2023-05-02T20:36:53.347Z,96629.69
2023-05-02T20:39:22.562Z,96628.81
2023-05-02T20:41:50.050Z,96635.34
2023-05-02T20:44:22.457Z,96623.75
2023-05-02T20:46:49.133Z,96631.91
2023-05-02T20:49:15.672Z,96628.69
2023-05-02T20:51:42.250Z,96632.69
2023-05-02T20:54:08.868Z,96632.91
2023-05-02T20:56:35.438Z,96632.09
2023-05-02T20:59:02.008Z,96628.59
2023-05-02T21:01:28.532Z,96629.06
2023-05-02T21:03:57.135Z,96628.28
2023-05-02T21:06:23.908Z,96632.94
2023-05-02T21:08:50.702Z,96629.72
2023-05-02T21:11:17.306Z,96627.31
2023-05-02T21:13:44.949Z,96634.16
2023-05-02T21:16:16.042Z,96634.34
2023-05-02T21:18:42.582Z,96632.69
2023-05-02T21:21:09.150Z,96625.78
2023-05-02T21:23:35.771Z,96631.56
2023-05-02T21:26:02.286Z,96634.66
2023-05-02T21:28:29.118Z,96617.22
2023-05-02T21:30:55.661Z,96631.47
2023-05-02T21:33:22.313Z,96635.69
2023-05-02T21:35:55.504Z,96630.59
2023-05-02T21:38:22.019Z,96616.84
2023-05-02T21:40:48.801Z,96628.16
2023-05-02T21:43:15.388Z,96624.41
2023-05-02T21:45:45.799Z,96615.09
2023-05-02T21:48:13.903Z,96624.16
2023-05-02T21:50:42.379Z,96621.53
2023-05-02T21:53:09.343Z,96617.66
2023-05-02T21:55:41.994Z,96621.78
2023-05-02T21:58:09.849Z,96620.19
2023-05-02T22:00:38.218Z,96619.91
2023-05-02T22:03:11.418Z,96619.09
2023-05-02T22:05:41.891Z,96623.38
2023-05-02T22:08:09.968Z,96617.56
2023-05-02T22:10:41.184Z,96618.88
2023-05-02T22:13:12.596Z,96623.06
2023-05-02T22:15:43.524Z,96613.84
2023-05-02T22:18:10.504Z,96618.91
2023-05-02T22:20:37.997Z,96619.97
2023-05-02T22:23:04.476Z,96620.03
2023-05-02T22:25:31.262Z,96616.84
2023-05-02T22:28:01.004Z,96620.50
2023-05-02T22:30:27.476Z,96624.00
2023-05-02T22:32:54.003Z,96628.94
2023-05-02T22:35:21.348Z,96623.06
2023-05-02T22:37:47.806Z,96625.19
2023-05-02T22:40:14.929Z,96623.78
2023-05-02T22:42:41.428Z,96631.72
2023-05-02T22:45:09.451Z,96630.78
2023-05-02T22:47:36.592Z,96625.94
2023-05-02T22:50:05.422Z,96633.19
2023-05-02T22:52:37.752Z,96628.88
2023-05-02T22:55:09.375Z,96625.53
2023-05-02T22:57:36.658Z,96631.81
2023-05-02T23:00:05.386Z,96636.91
2023-05-02T23:02:32.365Z,96622.53
2023-05-02T23:04:59.148Z,96632.94
2023-05-02T23:07:25.635Z,96632.63
2023-05-02T23:09:52.119Z,96636.19
2023-05-02T23:12:18.581Z,96633.47
2023-05-02T23:14:45.977Z,96633.72
2023-05-02T23:17:12.455Z,96628.38
2023-05-02T23:19:39.077Z,96625.75
2023-05-02T23:22:05.623Z,96633.72
2023-05-02T23:24:32.583Z,96618.44
2023-05-02T23:26:59.069Z,96627.59
2023-05-02T23:29:25.809Z,96623.94
2023-05-02T23:31:54.356Z,96624.97
2023-05-02T23:34:21.511Z,96630.06
2023-05-02T23:36:48.822Z,96621.63
2023-05-02T23:39:15.404Z,96629.97
2023-05-02T23:41:42.311Z,96632.59
2023-05-02T23:44:08.782Z,96625.44
2023-05-02T23:46:35.330Z,96625.56
2023-05-02T23:49:01.831Z,96622.81
2023-05-02T23:51:28.463Z,96619.84
2023-05-02T23:53:54.972Z,96620.00
2023-05-02T23:56:21.435Z,96613.72
2023-05-02T23:58:47.997Z,96616.81
